createdAt,value
2023-05-12T00:02:21.090Z,15.80
2023-05-12T00:04:52.350Z,15.80
2023-05-12T00:07:20.045Z,15.80
2023-05-12T00:09:47.913Z,15.80
2023-05-12T00:12:16.144Z,15.80
2023-05-12T00:14:44.061Z,15.80
2023-05-12T00:17:12.288Z,15.80
2023-05-12T00:19:41.469Z,15.80
2023-05-12T00:22:09.634Z,15.70
2023-05-12T00:24:37.770Z,15.70
2023-05-12T00:27:06.603Z,15.70
2023-05-12T00:29:36.095Z,15.60
2023-05-12T00:32:04.663Z,15.70
2023-05-12T00:34:32.392Z,15.70
2023-05-12T00:37:00.296Z,15.70
2023-05-12T00:39:28.439Z,15.70
2023-05-12T00:41:59.071Z,15.70
2023-05-12T00:44:27.984Z,15.70
2023-05-12T00:46:55.644Z,15.70
2023-05-12T00:49:26.337Z,15.70
2023-05-12T00:51:56.361Z,15.80
2023-05-12T00:54:23.917Z,15.80
2023-05-12T00:56:52.339Z,15.80
2023-05-12T00:59:22.083Z,15.80
2023-05-12T01:01:50.892Z,15.80
2023-05-12T01:04:18.981Z,15.80
2023-05-12T01:06:57.025Z,15.80
2023-05-12T01:09:24.988Z,15.80
2023-05-12T01:11:53.316Z,15.80
2023-05-12T01:14:21.285Z,15.80
2023-05-12T01:16:52.520Z,15.80
2023-05-12T01:19:41.329Z,15.80
2023-05-12T01:22:11.986Z,15.80
2023-05-12T01:24:43.584Z,15.80
2023-05-12T01:27:12.703Z,15.80
2023-05-12T01:29:44.718Z,15.80
2023-05-12T01:32:13.780Z,15.80
2023-05-12T01:34:42.733Z,15.70
2023-05-12T01:37:11.861Z,15.70
2023-05-12T01:39:39.913Z,15.70
2023-05-12T01:42:09.433Z,15.70
2023-05-12T01:44:37.696Z,15.70
2023-05-12T01:47:06.741Z,15.70
2023-05-12T01:49:34.330Z,15.70
2023-05-12T01:52:02.600Z,15.70
2023-05-12T01:54:31.105Z,15.70
2023-05-12T01:56:58.788Z,15.70
2023-05-12T01:59:27.745Z,15.70
2023-05-12T02:01:55.861Z,15.70
2023-05-12T02:04:25.782Z,15.70
2023-05-12T02:06:54.301Z,15.60
2023-05-12T02:09:23.100Z,15.60
2023-05-12T02:11:51.315Z,15.60
2023-05-12T02:14:19.081Z,15.60
2023-05-12T02:16:52.384Z,15.60
2023-05-12T02:19:21.161Z,15.60
2023-05-12T02:21:50.065Z,15.60
2023-05-12T02:24:17.794Z,15.60
2023-05-12T02:26:45.681Z,15.60
2023-05-12T02:29:14.030Z,15.60
2023-05-12T02:31:43.117Z,15.60
2023-05-12T02:34:15.548Z,15.60
2023-05-12T02:36:43.098Z,15.60
2023-05-12T02:39:12.276Z,15.60
2023-05-12T02:41:40.233Z,15.60
2023-05-12T02:44:08.385Z,15.60
2023-05-12T02:46:36.503Z,15.60
2023-05-12T02:49:05.150Z,15.60
2023-05-12T02:51:32.655Z,15.60
2023-05-12T02:54:00.279Z,15.60
2023-05-12T02:56:29.978Z,15.50
2023-05-12T02:58:59.037Z,15.50
2023-05-12T03:01:30.174Z,15.50
2023-05-12T03:03:58.121Z,15.50
2023-05-12T03:06:25.962Z,15.60
2023-05-12T03:08:56.804Z,15.50
2023-05-12T03:11:24.510Z,15.50
2023-05-12T03:13:52.871Z,15.50
2023-05-12T03:16:20.564Z,15.50
2023-05-12T03:18:49.054Z,15.50
2023-05-12T03:21:16.730Z,15.50
2023-05-12T03:23:44.736Z,15.50
2023-05-12T03:26:13.039Z,15.50
2023-05-12T03:28:40.679Z,15.50
2023-05-12T03:31:08.946Z,15.50
2023-05-12T03:33:37.298Z,15.50
2023-05-12T03:36:06.304Z,15.50
2023-05-12T03:38:34.338Z,15.50
2023-05-12T03:41:06.408Z,15.50
2023-05-12T03:43:34.930Z,15.50
2023-05-12T03:46:04.172Z,15.50
2023-05-12T03:48:32.065Z,15.50
2023-05-12T03:50:59.544Z,15.50
2023-05-12T03:53:28.683Z,15.50
2023-05-12T03:55:57.693Z,15.50
2023-05-12T03:58:25.493Z,15.50
2023-05-12T04:00:53.220Z,15.50
2023-05-12T04:03:20.804Z,15.50
2023-05-12T04:05:48.673Z,15.50
2023-05-12T04:08:16.497Z,15.50
2023-05-12T04:10:45.047Z,15.50
2023-05-12T04:13:13.142Z,15.50
2023-05-12T04:15:41.533Z,15.50
2023-05-12T04:18:10.344Z,15.50
2023-05-12T04:20:40.264Z,15.50
2023-05-12T04:23:08.703Z,15.50
2023-05-12T04:25:41.257Z,15.50
2023-05-12T04:28:12.112Z,15.50
2023-05-12T04:30:41.558Z,15.50
2023-05-12T04:33:12.389Z,15.50
2023-05-12T04:35:43.998Z,15.50
2023-05-12T04:38:13.829Z,15.50
2023-05-12T04:40:41.726Z,15.40
2023-05-12T04:43:09.142Z,15.40
2023-05-12T04:45:37.254Z,15.40
2023-05-12T04:48:05.634Z,15.30
2023-05-12T04:50:33.469Z,15.30
2023-05-12T04:53:01.393Z,15.40
2023-05-12T04:55:28.997Z,15.40
2023-05-12T04:57:57.192Z,15.40
2023-05-12T05:00:25.547Z,15.40
2023-05-12T05:02:53.723Z,15.40
2023-05-12T05:05:21.610Z,15.40
2023-05-12T05:07:49.668Z,15.40
2023-05-12T05:10:17.694Z,15.50
2023-05-12T05:12:45.676Z,15.50
2023-05-12T05:15:13.719Z,15.50
2023-05-12T05:17:44.214Z,15.50
2023-05-12T05:20:15.417Z,15.50
2023-05-12T05:22:43.166Z,15.50
2023-05-12T05:25:11.287Z,15.50
2023-05-12T05:27:39.160Z,15.50
2023-05-12T05:30:09.626Z,15.50
2023-05-12T05:32:39.935Z,15.50
2023-05-12T05:35:08.845Z,15.50
2023-05-12T05:37:41.669Z,15.50
2023-05-12T05:40:11.697Z,15.50
2023-05-12T05:42:39.621Z,15.50
2023-05-12T05:45:09.730Z,15.50
2023-05-12T05:47:37.801Z,15.50
2023-05-12T05:50:06.445Z,15.60
2023-05-12T05:52:36.214Z,15.60
2023-05-12T05:55:05.794Z,15.60
2023-05-12T05:57:33.513Z,15.60
2023-05-12T06:00:01.656Z,15.60
2023-05-12T06:02:29.831Z,15.60
2023-05-12T06:04:57.302Z,15.70
2023-05-12T06:07:25.634Z,15.70
2023-05-12T06:09:56.146Z,15.60
2023-05-12T06:12:23.908Z,15.70
2023-05-12T06:14:51.650Z,15.70
2023-05-12T06:17:19.597Z,15.80
2023-05-12T06:19:50.207Z,15.80
2023-05-12T06:22:17.769Z,15.80
2023-05-12T06:24:46.540Z,15.80
2023-05-12T06:27:14.111Z,15.80
2023-05-12T06:29:41.778Z,15.80
2023-05-12T06:32:10.020Z,15.90
2023-05-12T06:34:40.962Z,15.90
2023-05-12T06:37:08.902Z,15.90
2023-05-12T06:39:38.122Z,16.00
2023-05-12T06:42:07.819Z,16.00
2023-05-12T06:44:40.014Z,16.00
2023-05-12T06:47:08.144Z,16.00
2023-05-12T06:49:37.283Z,16.00
2023-05-12T06:52:06.950Z,16.10
2023-05-12T06:54:35.267Z,16.10
2023-05-12T06:57:03.346Z,16.10
2023-05-12T06:59:31.294Z,16.10
2023-05-12T07:01:59.045Z,16.10
2023-05-12T07:04:28.275Z,16.10
2023-05-12T07:06:57.141Z,16.10
2023-05-12T07:09:25.304Z,16.10
2023-05-12T07:11:53.391Z,16.10
2023-05-12T07:14:21.503Z,16.20
2023-05-12T07:16:49.328Z,16.20
2023-05-12T07:19:17.482Z,16.20
2023-05-12T07:21:45.704Z,16.30
2023-05-12T07:24:14.259Z,16.30
2023-05-12T07:26:42.382Z,16.40
2023-05-12T07:29:13.652Z,16.40
2023-05-12T07:31:41.195Z,16.50
2023-05-12T07:34:08.859Z,16.50
2023-05-12T07:36:36.734Z,16.60
2023-05-12T07:39:04.934Z,16.60
2023-05-12T07:41:34.531Z,16.60
2023-05-12T07:44:02.977Z,16.70
2023-05-12T07:46:30.762Z,16.70
2023-05-12T07:48:59.753Z,16.70
2023-05-12T07:51:27.524Z,16.70
2023-05-12T07:53:55.823Z,16.70
2023-05-12T07:56:25.091Z,16.60
2023-05-12T07:58:53.141Z,16.60
2023-05-12T08:01:21.316Z,16.50
2023-05-12T08:03:51.351Z,16.50
2023-05-12T08:06:19.551Z,16.50
2023-05-12T08:08:47.588Z,16.40
2023-05-12T08:11:15.624Z,16.40
2023-05-12T08:13:43.374Z,16.40
2023-05-12T08:16:11.669Z,16.30
2023-05-12T08:18:39.549Z,16.30
2023-05-12T08:21:07.472Z,16.40
2023-05-12T08:23:35.393Z,16.40
2023-05-12T08:26:04.502Z,16.50
2023-05-12T08:28:32.718Z,16.60
2023-05-12T08:31:03.316Z,16.60
2023-05-12T08:33:30.851Z,16.70
2023-05-12T08:35:58.794Z,16.80
2023-05-12T08:38:26.955Z,16.80
2023-05-12T08:41:14.869Z,16.80
2023-05-12T08:43:48.689Z,16.90
2023-05-12T08:46:17.351Z,16.90
2023-05-12T08:48:47.707Z,16.90
2023-05-12T08:51:15.874Z,16.90
2023-05-12T08:53:44.269Z,17.00
2023-05-12T08:58:45.319Z,17.00
2023-05-12T09:01:15.221Z,17.10
2023-05-12T09:03:43.301Z,17.10
2023-05-12T09:06:11.830Z,17.10
2023-05-12T09:08:41.296Z,17.20
2023-05-12T09:11:11.930Z,17.30
2023-05-12T09:14:00.834Z,17.40
2023-05-12T09:16:32.291Z,17.40
2023-05-12T09:19:06.017Z,17.50
2023-05-12T09:21:34.229Z,17.60
2023-05-12T09:24:08.102Z,17.70
2023-05-12T09:26:48.730Z,17.80
2023-05-12T09:29:27.741Z,17.80
2023-05-12T09:31:54.130Z,18.00
2023-05-12T09:34:23.535Z,18.10
2023-05-12T09:37:00.529Z,18.30
2023-05-12T09:39:29.403Z,18.40
2023-05-12T09:41:58.056Z,18.40
2023-05-12T09:44:26.220Z,18.60
2023-05-12T09:46:57.318Z,18.70
2023-05-12T09:49:27.222Z,18.80
2023-05-12T09:51:59.361Z,18.90
2023-05-12T09:54:28.703Z,18.90
2023-05-12T09:57:00.038Z,19.00
2023-05-12T09:59:33.571Z,19.00
2023-05-12T10:02:03.168Z,19.00
2023-05-12T10:04:34.757Z,19.00
2023-05-12T10:07:03.030Z,18.90
2023-05-12T10:09:36.455Z,18.80
2023-05-12T10:12:04.963Z,18.70
2023-05-12T10:14:33.138Z,18.70
2023-05-12T10:17:02.098Z,18.70
2023-05-12T10:19:32.515Z,18.80
2023-05-12T10:22:02.602Z,18.80
2023-05-12T10:24:30.196Z,18.90
2023-05-12T10:27:00.789Z,19.10
2023-05-12T10:29:30.659Z,19.30
2023-05-12T10:31:58.632Z,19.40
2023-05-12T10:34:40.862Z,19.50
2023-05-12T10:37:11.650Z,19.50
2023-05-12T10:39:54.405Z,19.50
2023-05-12T10:42:25.220Z,19.50
2023-05-12T10:44:55.107Z,19.50
2023-05-12T10:47:29.565Z,19.50
2023-05-12T10:50:01.206Z,19.40
2023-05-12T10:52:29.266Z,19.40
2023-05-12T10:55:02.785Z,19.30
2023-05-12T10:57:31.424Z,19.30
2023-05-12T11:00:03.602Z,19.20
2023-05-12T11:02:34.621Z,19.20
2023-05-12T11:05:07.284Z,19.20
2023-05-12T11:07:37.321Z,19.20
2023-05-12T11:10:07.858Z,19.10
2023-05-12T11:12:39.460Z,19.20
2023-05-12T11:15:08.540Z,19.10
2023-05-12T11:17:41.221Z,19.10
2023-05-12T11:20:16.199Z,19.10
2023-05-12T11:22:44.768Z,19.00
2023-05-12T11:25:13.986Z,19.00
2023-05-12T11:27:47.972Z,19.00
2023-05-12T11:30:17.018Z,19.00
2023-05-12T11:32:44.914Z,19.00
2023-05-12T11:35:16.627Z,19.00
2023-05-12T11:37:45.737Z,19.00
2023-05-12T11:40:19.094Z,19.10
2023-05-12T11:42:51.312Z,19.20
2023-05-12T11:45:25.310Z,19.30
2023-05-12T11:47:53.879Z,19.40
2023-05-12T11:50:24.389Z,19.50
2023-05-12T11:52:53.442Z,19.60
2023-05-12T11:55:24.380Z,19.70
2023-05-12T11:58:03.303Z,19.90
2023-05-12T12:00:34.197Z,19.90
2023-05-12T12:03:09.684Z,20.00
2023-05-12T12:05:38.029Z,20.10
2023-05-12T12:08:09.249Z,20.10
2023-05-12T12:10:36.941Z,20.20
2023-05-12T12:13:04.565Z,20.20
2023-05-12T12:15:32.624Z,20.30
2023-05-12T12:18:00.017Z,20.30
2023-05-12T12:20:27.855Z,20.30
2023-05-12T12:22:55.854Z,20.30
2023-05-12T12:25:24.158Z,20.30
2023-05-12T12:27:53.263Z,20.30
2023-05-12T12:30:22.106Z,20.30
2023-05-12T12:32:49.851Z,20.30
2023-05-12T12:35:17.823Z,20.40
2023-05-12T12:37:51.703Z,20.50
2023-05-12T12:40:20.612Z,20.60
2023-05-12T12:42:48.302Z,20.70
2023-05-12T12:45:18.530Z,20.80
2023-05-12T12:47:46.356Z,20.90
2023-05-12T12:50:14.071Z,20.90
2023-05-12T12:52:42.272Z,21.00
2023-05-12T12:55:11.352Z,21.00
2023-05-12T12:57:39.834Z,20.90
2023-05-12T13:00:09.198Z,20.90
2023-05-12T13:02:37.107Z,20.80
2023-05-12T13:05:07.191Z,20.70
2023-05-12T13:07:36.442Z,20.70
2023-05-12T13:10:15.964Z,20.70
2023-05-12T13:12:44.125Z,20.70
2023-05-12T13:15:13.666Z,20.80
2023-05-12T13:17:42.669Z,20.80
2023-05-12T13:20:11.221Z,20.90
2023-05-12T13:22:38.934Z,21.00
2023-05-12T13:25:28.490Z,21.10
2023-05-12T13:27:56.423Z,21.20
2023-05-12T13:30:25.344Z,21.30
2023-05-12T13:32:53.131Z,21.30
2023-05-12T13:35:21.101Z,21.30
2023-05-12T13:37:49.787Z,21.40
2023-05-12T13:40:17.642Z,21.50
2023-05-12T13:42:45.512Z,21.50
2023-05-12T13:45:13.143Z,21.60
2023-05-12T13:47:41.153Z,21.70
2023-05-12T13:50:16.611Z,21.90
2023-05-12T13:52:44.140Z,22.10
2023-05-12T13:55:18.632Z,22.40
2023-05-12T13:57:42.258Z,22.60
2023-05-12T14:00:12.107Z,22.90
2023-05-12T14:02:42.783Z,23.10
2023-05-12T14:05:10.153Z,23.30
2023-05-12T14:07:39.556Z,23.50
2023-05-12T14:10:08.212Z,23.80
2023-05-12T14:12:37.538Z,24.10
2023-05-12T14:15:21.779Z,24.30
2023-05-12T14:17:35.998Z,24.50
2023-05-12T14:20:04.502Z,24.70
2023-05-12T14:22:32.097Z,24.90
2023-05-12T14:25:00.137Z,25.10
2023-05-12T14:27:28.799Z,25.20
2023-05-12T14:29:57.635Z,25.30
2023-05-12T14:32:25.981Z,25.50
2023-05-12T14:34:53.811Z,25.70
2023-05-12T14:37:25.115Z,25.80
2023-05-12T14:39:56.107Z,26.00
2023-05-12T14:42:24.545Z,26.10
2023-05-12T14:44:52.913Z,26.20
2023-05-12T14:47:21.507Z,26.40
2023-05-12T14:49:49.572Z,26.50
2023-05-12T14:52:17.702Z,26.60
2023-05-12T14:54:45.765Z,26.80
2023-05-12T14:57:14.040Z,26.90
2023-05-12T14:59:41.829Z,27.00
2023-05-12T15:02:09.704Z,27.10
2023-05-12T15:04:37.591Z,27.20
2023-05-12T15:07:06.423Z,27.30
2023-05-12T15:09:37.718Z,27.30
2023-05-12T15:12:05.668Z,27.40
2023-05-12T15:14:33.361Z,27.50
2023-05-12T15:17:00.928Z,27.60
2023-05-12T15:19:32.127Z,27.70
2023-05-12T15:22:00.398Z,27.70
2023-05-12T15:24:29.101Z,27.80
2023-05-12T15:26:56.717Z,28.00
2023-05-12T15:29:24.870Z,27.80
2023-05-12T15:31:53.601Z,27.80
2023-05-12T15:34:21.730Z,27.90
2023-05-12T15:36:51.070Z,27.90
2023-05-12T15:39:20.592Z,28.10
2023-05-12T15:41:50.327Z,28.20
2023-05-12T15:44:18.418Z,28.30
2023-05-12T15:46:49.634Z,28.30
2023-05-12T15:49:17.502Z,28.30
2023-05-12T15:51:45.572Z,28.20
2023-05-12T15:54:13.764Z,28.10
2023-05-12T15:56:41.820Z,28.10
2023-05-12T15:59:12.022Z,28.00
2023-05-12T16:01:40.165Z,28.10
2023-05-12T16:04:08.312Z,28.00
2023-05-12T16:06:36.028Z,28.00
2023-05-12T16:09:05.562Z,27.90
2023-05-12T16:11:36.885Z,28.00
2023-05-12T16:14:05.556Z,27.90
2023-05-12T16:16:33.719Z,27.90
2023-05-12T16:19:01.942Z,27.80
2023-05-12T16:21:30.726Z,27.80
2023-05-12T16:23:59.174Z,27.70
2023-05-12T16:26:27.203Z,27.50
2023-05-12T16:28:55.052Z,27.50
2023-05-12T16:31:23.615Z,27.50
2023-05-12T16:33:54.615Z,27.30
2023-05-12T16:36:24.259Z,27.20
2023-05-12T16:38:53.595Z,27.00
2023-05-12T16:41:26.112Z,26.70
2023-05-12T16:43:55.987Z,26.30
2023-05-12T16:46:24.542Z,26.10
2023-05-12T16:48:52.537Z,25.90
2023-05-12T16:51:19.900Z,25.80
2023-05-12T16:53:51.606Z,25.70
2023-05-12T16:56:19.178Z,25.70
2023-05-12T16:58:47.181Z,25.80
2023-05-12T17:01:15.827Z,25.80
2023-05-12T17:03:43.821Z,25.80
2023-05-12T17:06:11.913Z,25.80
2023-05-12T17:08:40.539Z,25.80
2023-05-12T17:11:08.588Z,25.90
2023-05-12T17:13:37.703Z,25.90
2023-05-12T17:16:06.238Z,25.90
2023-05-12T17:19:13.512Z,25.80
2023-05-12T17:21:05.351Z,25.80
2023-05-12T17:23:33.697Z,25.80
2023-05-12T17:26:01.750Z,25.70
2023-05-12T17:28:29.453Z,25.70
2023-05-12T17:30:58.458Z,25.60
2023-05-12T17:33:26.799Z,25.50
2023-05-12T17:36:10.968Z,25.30
2023-05-12T17:38:24.870Z,25.10
2023-05-12T17:40:53.442Z,24.80
2023-05-12T17:43:21.941Z,24.50
2023-05-12T17:45:51.138Z,24.10
2023-05-12T17:48:19.072Z,23.90
2023-05-12T17:50:47.893Z,23.70
2023-05-12T17:53:16.375Z,23.50
2023-05-12T17:55:44.352Z,23.30
2023-05-12T17:58:11.929Z,23.10
2023-05-12T18:00:41.036Z,22.90
2023-05-12T18:03:10.188Z,22.80
2023-05-12T18:05:39.007Z,22.60
2023-05-12T18:08:08.262Z,22.50
2023-05-12T18:10:36.936Z,22.30
2023-05-12T18:13:05.501Z,22.20
2023-05-12T18:15:34.039Z,22.00
2023-05-12T18:18:02.777Z,21.90
2023-05-12T18:20:30.441Z,21.80
2023-05-12T18:22:58.436Z,21.70
2023-05-12T18:25:26.999Z,21.50
2023-05-12T18:27:55.013Z,21.50
2023-05-12T18:30:23.078Z,21.30
2023-05-12T18:32:51.259Z,21.30
2023-05-12T18:35:20.137Z,21.20
2023-05-12T18:37:48.339Z,21.00
2023-05-12T18:40:16.406Z,21.00
2023-05-12T18:42:44.047Z,20.90
2023-05-12T18:45:13.218Z,20.80
2023-05-12T18:47:44.628Z,20.80
2023-05-12T18:50:12.246Z,20.70
2023-05-12T18:52:39.765Z,20.70
2023-05-12T18:55:09.017Z,20.60
2023-05-12T18:57:37.137Z,20.50
2023-05-12T19:00:07.009Z,20.40
2023-05-12T19:02:36.647Z,20.40
2023-05-12T19:05:05.882Z,20.30
2023-05-12T19:07:34.828Z,20.20
2023-05-12T19:10:02.886Z,20.20
2023-05-12T19:12:31.310Z,20.10
2023-05-12T19:14:59.273Z,20.10
2023-05-12T19:17:27.343Z,20.00
2023-05-12T19:19:55.815Z,20.00
2023-05-12T19:22:25.462Z,20.00
2023-05-12T19:24:53.598Z,20.00
2023-05-12T19:27:21.588Z,19.90
2023-05-12T19:29:50.022Z,19.90
2023-05-12T19:32:18.562Z,19.90
2023-05-12T19:34:49.410Z,19.80
2023-05-12T19:37:17.875Z,19.80
2023-05-12T19:39:46.237Z,19.80
2023-05-12T19:42:13.952Z,19.80
2023-05-12T19:44:41.714Z,19.80
2023-05-12T19:47:10.380Z,19.70
2023-05-12T19:49:38.268Z,19.70
2023-05-12T19:52:06.491Z,19.70
2023-05-12T19:54:34.552Z,19.60
2023-05-12T19:57:02.440Z,19.50
2023-05-12T19:59:30.310Z,19.50
2023-05-12T20:01:58.734Z,19.50
2023-05-12T20:04:27.648Z,19.50
2023-05-12T20:06:55.369Z,19.40
2023-05-12T20:09:25.074Z,19.40
2023-05-12T20:11:53.747Z,19.30
2023-05-12T20:14:21.159Z,19.30
2023-05-12T20:16:49.460Z,19.20
2023-05-12T20:19:18.232Z,19.20
2023-05-12T20:21:45.908Z,19.20
2023-05-12T20:24:14.471Z,19.10
2023-05-12T20:26:42.309Z,19.10
2023-05-12T20:29:10.181Z,19.10
2023-05-12T20:31:38.427Z,19.10
2023-05-12T20:34:06.524Z,19.00
2023-05-12T20:36:34.324Z,19.00
2023-05-12T20:39:02.266Z,19.00
2023-05-12T20:41:30.839Z,19.00
2023-05-12T20:43:58.917Z,18.90
2023-05-12T20:46:28.475Z,18.90
2023-05-12T20:48:55.875Z,18.90
2023-05-12T20:51:24.012Z,18.90
2023-05-12T20:53:52.487Z,18.90
2023-05-12T20:56:22.955Z,18.90
2023-05-12T20:58:51.132Z,18.80
2023-05-12T21:01:22.494Z,18.80
2023-05-12T21:03:49.690Z,18.80
2023-05-12T21:06:17.456Z,18.80
2023-05-12T21:08:46.956Z,18.80
2023-05-12T21:11:19.447Z,18.70
2023-05-12T21:13:48.449Z,18.70
2023-05-12T21:16:17.350Z,18.60
2023-05-12T21:18:45.294Z,18.60
2023-05-12T21:21:14.744Z,18.60
2023-05-12T21:23:42.220Z,18.60
2023-05-12T21:26:10.775Z,18.60
2023-05-12T21:28:39.854Z,18.50
2023-05-12T21:31:07.850Z,18.40
2023-05-12T21:33:36.016Z,18.40
2023-05-12T21:36:04.383Z,18.40
2023-05-12T21:38:33.411Z,18.40
2023-05-12T21:41:23.043Z,18.40
2023-05-12T21:43:51.434Z,18.40
2023-05-12T21:46:19.489Z,18.40
2023-05-12T21:48:47.640Z,18.30
2023-05-12T21:51:16.589Z,18.30
2023-05-12T21:53:44.008Z,18.30
2023-05-12T21:56:11.551Z,18.30
2023-05-12T21:58:40.266Z,18.30
2023-05-12T22:01:11.764Z,18.20
2023-05-12T22:03:40.733Z,18.20
2023-05-12T22:06:09.697Z,18.20
2023-05-12T22:08:37.458Z,18.00
2023-05-12T22:11:08.311Z,18.00
2023-05-12T22:13:36.100Z,18.00
2023-05-12T22:16:07.365Z,18.00
2023-05-12T22:18:35.851Z,18.00
2023-05-12T22:21:04.884Z,18.00
2023-05-12T22:23:33.058Z,18.00
2023-05-12T22:26:00.493Z,18.00
2023-05-12T22:28:30.078Z,18.00
2023-05-12T22:30:58.147Z,17.90
2023-05-12T22:33:25.916Z,17.90
2023-05-12T22:35:53.915Z,17.90
2023-05-12T22:38:22.274Z,17.90
2023-05-12T22:40:50.584Z,17.80
2023-05-12T22:43:18.826Z,17.80
2023-05-12T22:45:52.410Z,17.80
2023-05-12T22:48:20.189Z,17.80
2023-05-12T22:50:48.858Z,17.80
2023-05-12T22:53:16.760Z,17.80
2023-05-12T22:55:45.225Z,17.80
2023-05-12T22:58:13.285Z,17.80
2023-05-12T23:00:41.720Z,17.80
2023-05-12T23:03:10.166Z,17.80
2023-05-12T23:05:38.025Z,17.80
2023-05-12T23:08:06.661Z,17.80
2023-05-12T23:10:35.497Z,17.80
2023-05-12T23:13:04.145Z,17.80
2023-05-12T23:15:32.215Z,17.80
2023-05-12T23:18:00.503Z,17.80
2023-05-12T23:20:28.462Z,17.70
2023-05-12T23:22:56.732Z,17.80
2023-05-12T23:25:28.401Z,17.70
2023-05-12T23:27:56.016Z,17.70
2023-05-12T23:30:24.731Z,17.70
2023-05-12T23:32:53.050Z,17.70
2023-05-12T23:35:21.952Z,17.70
2023-05-12T23:37:50.656Z,17.70
2023-05-12T23:40:18.631Z,17.70
2023-05-12T23:42:46.299Z,17.70
2023-05-12T23:45:14.506Z,17.70
2023-05-12T23:47:43.779Z,17.70
2023-05-12T23:50:11.912Z,17.70
2023-05-12T23:52:43.191Z,17.70
2023-05-12T23:55:12.207Z,17.70
2023-05-12T23:57:39.751Z,17.70
